Time,TemperatureF,DewpointF,PressureIn,WindDirection,WindDirectionDegrees,WindSpeedMPH,WindSpeedGustMPH,Humidity,HourlyPrecipIn,Conditions,Clouds,dailyrainin,SoftwareType,DateUTC
2013-07-18 00:06:00,70.5,69.0,30.11,NE,44,0.0,0.0,96,0.00,,,0.00,weatherlink.com 1.10,2013-07-18 05:06:00,
2013-07-18 00:21:00,70.0,69.0,30.11,NE,44,0.0,0.0,97,0.00,,,0.00,weatherlink.com 1.10,2013-07-18 05:21:00,
2013-07-18 00:36:00,69.8,69.0,30.12,NE,56,0.0,0.0,97,0.00,,,0.00,weatherlink.com 1.10,2013-07-18 05:36:00,
2013-07-18 00:51:00,69.6,69.0,30.12,WNW,287,0.0,0.0,97,0.00,,,0.00,weatherlink.com 1.10,2013-07-18 05:51:00,
2013-07-18 01:06:00,69.2,68.0,30.11,WNW,297,0.0,1.0,97,0.00,,,0.00,weatherlink.com 1.10,2013-07-18 06:06:00,
2013-07-18 01:21:00,69.3,69.0,30.11,ESE,115,1.0,1.0,97,0.00,,,0.00,weatherlink.com 1.10,2013-07-18 06:21:00,
2013-07-18 01:36:00,69.7,69.0,30.09,East,100,0.0,2.0,97,0.00,,,0.00,weatherlink.com 1.10,2013-07-18 06:36:00,
2013-07-18 01:51:00,69.9,69.0,30.07,SE,134,0.0,0.0,97,0.00,,,0.00,weatherlink.com 1.10,2013-07-18 06:51:00,
2013-07-18 02:06:00,69.3,69.0,30.07,North,355,0.0,0.0,97,0.00,,,0.00,weatherlink.com 1.10,2013-07-18 07:06:00,
2013-07-18 02:21:00,69.0,68.0,30.07,NE,54,0.0,1.0,97,0.00,,,0.00,weatherlink.com 1.10,2013-07-18 07:21:00,
2013-07-18 02:36:00,68.8,68.0,30.07,NE,35,0.0,0.0,97,0.00,,,0.00,weatherlink.com 1.10,2013-07-18 07:36:00,
2013-07-18 02:51:00,69.0,69.0,30.06,SW,218,0.0,1.0,98,0.00,,,0.00,weatherlink.com 1.10,2013-07-18 07:51:00,
2013-07-18 03:06:00,68.6,68.0,30.06,North,350,1.0,2.0,98,0.00,,,0.00,weatherlink.com 1.10,2013-07-18 08:06:00,
2013-07-18 03:21:00,68.9,68.0,30.07,NE,42,0.0,1.0,98,0.01,,,0.01,weatherlink.com 1.10,2013-07-18 08:21:00,
2013-07-18 03:36:00,68.9,68.0,30.07,NW,326,0.0,3.0,98,0.01,,,0.01,weatherlink.com 1.10,2013-07-18 08:36:00,
2013-07-18 03:51:00,69.0,69.0,30.09,North,354,0.0,1.0,98,0.01,,,0.01,weatherlink.com 1.10,2013-07-18 08:51:00,
2013-07-18 04:06:00,69.0,69.0,30.08,NE,41,0.0,1.0,98,0.01,,,0.01,weatherlink.com 1.10,2013-07-18 09:06:00,
2013-07-18 04:21:00,68.9,68.0,30.07,NE,41,0.0,0.0,98,0.00,,,0.01,weatherlink.com 1.10,2013-07-18 09:21:00,
2013-07-18 04:36:00,68.8,68.0,30.07,NE,41,0.0,0.0,98,0.00,,,0.01,weatherlink.com 1.10,2013-07-18 09:36:00,
2013-07-18 04:51:00,68.8,68.0,30.07,NNE,28,0.0,1.0,98,0.00,,,0.01,weatherlink.com 1.10,2013-07-18 09:51:00,
2013-07-18 05:06:00,68.8,68.0,30.09,North,3,0.0,1.0,98,0.00,,,0.01,weatherlink.com 1.10,2013-07-18 10:06:00,
2013-07-18 05:21:00,68.5,68.0,30.09,North,4,0.0,0.0,98,0.00,,,0.01,weatherlink.com 1.10,2013-07-18 10:21:00,
2013-07-18 05:36:00,68.6,68.0,30.09,NNE,20,0.0,1.0,98,0.00,,,0.01,weatherlink.com 1.10,2013-07-18 10:36:00,
2013-07-18 05:51:00,68.5,68.0,30.09,NNE,20,0.0,0.0,98,0.00,,,0.01,weatherlink.com 1.10,2013-07-18 10:51:00,
2013-07-18 06:06:00,68.6,68.0,30.08,NNE,23,0.0,1.0,98,0.00,,,0.01,weatherlink.com 1.10,2013-07-18 11:06:00,
2013-07-18 06:21:00,68.8,68.0,30.09,NNE,12,0.0,1.0,98,0.00,,,0.01,weatherlink.com 1.10,2013-07-18 11:21:00,
2013-07-18 06:36:00,69.0,69.0,30.09,NNE,12,0.0,1.0,98,0.00,,,0.01,weatherlink.com 1.10,2013-07-18 11:36:00,
2013-07-18 06:51:00,69.3,69.0,30.09,NNE,13,0.0,1.0,98,0.00,,,0.01,weatherlink.com 1.10,2013-07-18 11:51:00,
2013-07-18 07:06:00,69.9,69.0,30.09,NE,43,0.0,0.0,98,0.00,,,0.01,weatherlink.com 1.10,2013-07-18 12:06:00,
2013-07-18 07:22:00,71.2,71.0,30.09,North,359,0.0,2.0,98,0.00,,,0.01,weatherlink.com 1.10,2013-07-18 12:22:00,
2013-07-18 07:37:00,73.1,72.0,30.10,North,355,0.0,2.0,96,0.00,,,0.01,weatherlink.com 1.10,2013-07-18 12:37:00,
2013-07-18 07:52:00,74.4,72.0,30.10,East,91,2.0,3.0,92,0.00,,,0.01,weatherlink.com 1.10,2013-07-18 12:52:00,
2013-07-18 08:07:00,75.9,73.0,30.10,North,350,1.0,4.0,90,0.00,,,0.01,weatherlink.com 1.10,2013-07-18 13:07:00,
2013-07-18 08:22:00,77.0,73.0,30.11,NNW,342,0.0,3.0,88,0.00,,,0.01,weatherlink.com 1.10,2013-07-18 13:22:00,
2013-07-18 08:37:00,77.8,74.0,30.11,NNE,26,2.0,4.0,87,0.00,,,0.01,weatherlink.com 1.10,2013-07-18 13:37:00,
2013-07-18 08:52:00,79.5,74.0,30.11,NW,323,1.0,3.0,83,0.00,,,0.01,weatherlink.com 1.10,2013-07-18 13:52:00,
2013-07-18 09:07:00,80.3,74.0,30.11,East,82,0.0,2.0,81,0.00,,,0.01,weatherlink.com 1.10,2013-07-18 14:07:00,
2013-07-18 09:22:00,82.2,76.0,30.11,North,4,1.0,2.0,80,0.00,,,0.01,weatherlink.com 1.10,2013-07-18 14:22:00,
2013-07-18 09:37:00,82.2,75.0,30.11,ESE,103,1.0,3.0,78,0.00,,,0.01,weatherlink.com 1.10,2013-07-18 14:37:00,
2013-07-18 09:52:00,81.9,75.0,30.11,SSW,212,0.0,3.0,79,0.00,,,0.01,weatherlink.com 1.10,2013-07-18 14:52:00,
2013-07-18 10:07:00,83.4,76.0,30.11,NW,308,1.0,3.0,78,0.00,,,0.01,weatherlink.com 1.10,2013-07-18 15:07:00,
2013-07-18 10:22:00,83.1,76.0,30.11,ENE,69,0.0,3.0,78,0.00,,,0.01,weatherlink.com 1.10,2013-07-18 15:22:00,
2013-07-18 10:37:00,84.6,76.0,30.11,NW,319,0.0,3.0,75,0.00,,,0.01,weatherlink.com 1.10,2013-07-18 15:37:00,
2013-07-18 10:52:00,85.8,77.0,30.11,ESE,115,0.0,1.0,74,0.00,,,0.01,weatherlink.com 1.10,2013-07-18 15:52:00,
2013-07-18 11:07:00,85.9,78.0,30.11,NNE,25,1.0,2.0,77,0.00,,,0.01,weatherlink.com 1.10,2013-07-18 16:07:00,
2013-07-18 11:22:00,85.6,78.0,30.11,North,353,1.0,3.0,77,0.00,,,0.01,weatherlink.com 1.10,2013-07-18 16:22:00,
2013-07-18 11:37:00,85.6,76.0,30.11,SW,221,1.0,3.0,74,0.00,,,0.01,weatherlink.com 1.10,2013-07-18 16:37:00,
2013-07-18 11:52:00,87.9,77.0,30.11,ENE,58,1.0,2.0,71,0.00,,,0.01,weatherlink.com 1.10,2013-07-18 16:52:00,
2013-07-18 12:07:00,87.4,78.0,30.10,NNW,345,0.0,3.0,73,0.00,,,0.01,weatherlink.com 1.10,2013-07-18 17:07:00,
2013-07-18 12:22:00,89.2,77.0,30.10,SSE,149,0.0,2.0,68,0.00,,,0.01,weatherlink.com 1.10,2013-07-18 17:22:00,
2013-07-18 12:37:00,87.9,77.0,30.09,NW,312,0.0,3.0,70,0.00,,,0.01,weatherlink.com 1.10,2013-07-18 17:37:00,
2013-07-18 12:52:00,88.7,79.0,30.09,NW,307,1.0,2.0,72,0.00,,,0.01,weatherlink.com 1.10,2013-07-18 17:52:00,
2013-07-18 13:07:00,89.3,80.0,30.08,ENE,67,0.0,1.0,74,0.00,,,0.01,weatherlink.com 1.10,2013-07-18 18:07:00,
2013-07-18 13:22:00,89.9,78.0,30.06,WNW,302,1.0,5.0,67,0.00,,,0.01,weatherlink.com 1.10,2013-07-18 18:22:00,
2013-07-18 13:37:00,89.5,78.0,30.05,SSW,210,0.0,3.0,69,0.00,,,0.01,weatherlink.com 1.10,2013-07-18 18:37:00,
2013-07-18 13:52:00,88.5,79.0,30.04,East,82,0.0,2.0,73,0.00,,,0.01,weatherlink.com 1.10,2013-07-18 18:52:00,
2013-07-18 14:07:00,89.7,77.0,30.04,NNE,32,2.0,3.0,67,0.00,,,0.01,weatherlink.com 1.10,2013-07-18 19:07:00,
2013-07-18 14:23:00,88.0,78.0,30.03,NW,326,0.0,1.0,72,0.00,,,0.01,weatherlink.com 1.10,2013-07-18 19:23:00,
2013-07-18 14:38:00,89.2,76.0,30.03,ENE,64,0.0,4.0,66,0.00,,,0.01,weatherlink.com 1.10,2013-07-18 19:38:00,
2013-07-18 14:53:00,91.0,76.0,30.03,ENE,68,2.0,4.0,62,0.00,,,0.01,weatherlink.com 1.10,2013-07-18 19:53:00,
2013-07-18 15:08:00,91.7,78.0,30.02,SE,127,2.0,4.0,64,0.00,,,0.01,weatherlink.com 1.10,2013-07-18 20:08:00,
2013-07-18 15:23:00,91.1,75.0,30.01,SSE,148,4.0,5.0,60,0.00,,,0.01,weatherlink.com 1.10,2013-07-18 20:23:00,
2013-07-18 15:38:00,91.7,75.0,30.01,SSE,167,5.0,6.0,59,0.00,,,0.01,weatherlink.com 1.10,2013-07-18 20:38:00,
2013-07-18 15:53:00,91.6,75.0,30.01,ENE,69,2.0,5.0,59,0.00,,,0.01,weatherlink.com 1.10,2013-07-18 20:53:00,
2013-07-18 16:08:00,91.8,77.0,30.01,ENE,63,1.0,5.0,62,0.00,,,0.01,weatherlink.com 1.10,2013-07-18 21:08:00,
2013-07-18 16:23:00,93.0,77.0,30.00,South,187,0.0,2.0,60,0.00,,,0.01,weatherlink.com 1.10,2013-07-18 21:23:00,
2013-07-18 16:38:00,85.6,76.0,30.02,South,181,1.0,10.0,72,0.00,,,0.01,weatherlink.com 1.10,2013-07-18 21:38:00,
2013-07-18 16:53:00,80.9,73.0,30.02,East,98,1.0,10.0,78,0.00,,,0.01,weatherlink.com 1.10,2013-07-18 21:53:00,
2013-07-18 17:08:00,78.6,74.0,30.01,WSW,251,0.0,6.0,86,0.00,,,0.01,weatherlink.com 1.10,2013-07-18 22:08:00,
2013-07-18 17:23:00,77.9,75.0,30.00,SSW,194,0.0,2.0,89,0.00,,,0.01,weatherlink.com 1.10,2013-07-18 22:23:00,
2013-07-18 17:38:00,78.4,75.0,29.99,SSE,165,0.0,1.0,90,0.00,,,0.01,weatherlink.com 1.10,2013-07-18 22:38:00,
2013-07-18 17:53:00,79.4,76.0,29.99,ESE,122,0.0,0.0,88,0.00,,,0.01,weatherlink.com 1.10,2013-07-18 22:53:00,
2013-07-18 18:08:00,79.7,76.0,29.99,East,99,0.0,1.0,88,0.00,,,0.01,weatherlink.com 1.10,2013-07-18 23:08:00,
2013-07-18 18:23:00,79.4,76.0,29.99,East,99,0.0,0.0,90,0.00,,,0.01,weatherlink.com 1.10,2013-07-18 23:23:00,
2013-07-18 18:53:00,79.4,77.0,30.01,SSE,158,0.0,1.0,91,0.00,,,0.01,weatherlink.com 1.10,2013-07-18 23:53:00,
2013-07-18 19:08:00,79.4,77.0,30.01,SSE,158,0.0,0.0,91,0.00,,,0.01,weatherlink.com 1.10,2013-07-19 00:08:00,
2013-07-18 19:23:00,79.1,77.0,30.01,SE,141,0.0,0.0,92,0.00,,,0.01,weatherlink.com 1.10,2013-07-19 00:23:00,
2013-07-18 19:38:00,78.3,76.0,30.02,SE,140,0.0,0.0,93,0.00,,,0.01,weatherlink.com 1.10,2013-07-19 00:38:00,
2013-07-18 19:53:00,77.6,76.0,30.02,East,86,0.0,1.0,95,0.00,,,0.01,weatherlink.com 1.10,2013-07-19 00:53:00,
2013-07-18 20:08:00,77.0,76.0,30.02,East,86,0.0,0.0,95,0.00,,,0.01,weatherlink.com 1.10,2013-07-19 01:08:00,
2013-07-18 20:23:00,76.6,75.0,30.03,ENE,57,0.0,1.0,95,0.00,,,0.01,weatherlink.com 1.10,2013-07-19 01:23:00,
2013-07-18 20:38:00,76.1,75.0,30.04,ENE,63,0.0,0.0,96,0.00,,,0.01,weatherlink.com 1.10,2013-07-19 01:38:00,
2013-07-18 20:53:00,75.9,75.0,30.05,ENE,67,0.0,0.0,97,0.00,,,0.01,weatherlink.com 1.10,2013-07-19 01:53:00,
2013-07-18 21:08:00,75.7,75.0,30.05,SE,139,0.0,0.0,97,0.00,,,0.01,weatherlink.com 1.10,2013-07-19 02:08:00,
2013-07-18 21:23:00,75.3,74.0,30.06,SE,139,0.0,0.0,97,0.00,,,0.01,weatherlink.com 1.10,2013-07-19 02:23:00,
2013-07-18 21:38:00,75.1,74.0,30.07,SE,139,0.0,0.0,97,0.00,,,0.01,weatherlink.com 1.10,2013-07-19 02:38:00,
2013-07-18 21:53:00,74.8,74.0,30.06,ESE,105,0.0,1.0,97,0.00,,,0.01,weatherlink.com 1.10,2013-07-19 02:53:00,
2013-07-18 22:08:00,74.7,74.0,30.06,ESE,105,0.0,0.0,97,0.00,,,0.01,weatherlink.com 1.10,2013-07-19 03:08:00,
2013-07-18 22:23:00,74.5,74.0,30.06,ESE,106,0.0,0.0,97,0.00,,,0.01,weatherlink.com 1.10,2013-07-19 03:23:00,
2013-07-18 22:38:00,74.8,74.0,30.07,SSE,158,0.0,1.0,97,0.00,,,0.01,weatherlink.com 1.10,2013-07-19 03:38:00,
2013-07-18 22:53:00,74.3,73.0,30.07,SSE,158,0.0,0.0,97,0.00,,,0.01,weatherlink.com 1.10,2013-07-19 03:53:00,
2013-07-18 23:08:00,74.0,73.0,30.07,SSE,158,0.0,0.0,97,0.00,,,0.01,weatherlink.com 1.10,2013-07-19 04:08:00,
2013-07-18 23:23:00,73.8,73.0,30.07,SSE,158,0.0,0.0,97,0.00,,,0.01,weatherlink.com 1.10,2013-07-19 04:23:00,
2013-07-18 23:38:00,73.6,73.0,30.07,SSE,158,0.0,0.0,97,0.00,,,0.01,weatherlink.com 1.10,2013-07-19 04:38:00,
2013-07-18 23:53:00,73.5,73.0,30.07,SSE,158,0.0,0.0,98,0.00,,,0.01,weatherlink.com 1.10,2013-07-19 04:53:00,